Airfield :
LOGIN :

Register | Disclaimer

   EN    FR    IT 

 










Legend :    VFR   Marginal VFR   IFR   Intensive IFR   Very Intensive IFR
Visi :
Ceiling :
>= 8 km
>= 3000ft
5 to 8 km
1000 to 3000 ft
1500m to 5 km
500 to 1000 ft
800 to 1500m
200 to 500 ft
< 800m
< 200 ft
Symbols :   Thunderstorms  Fog  Heavy snow  Heavy precipitations  Wind > 20 kt
SIGMETs :     Misc.  Thunderstorms  Icing  Turbulence  Mountain Waves  Volcanic Ashes






- Airport Elevation : 485 ft
- IATA code : QSA


LELL - Sabadell

CURRENT METAR :
  • 080830Z 00000KT 5000 BR BKN025 BKN035 09/07 Q1009

EXPIRED METARs :
  • 080800Z 00000KT 4000 BR OVC020 09/07 Q1009
  • 080730Z 29003KT 4500 BR OVC020 09/07 Q1009
  • 080700Z 31002KT 4500 BR OVC020 08/07 Q1009
  • 080630Z AUTO 30004KT 7000 BKN027 BKN035 07/06 Q1009
  • 080600Z AUTO 29004KT 6000 SCT031 07/06 Q1009

TAF TAF LELL
Valid from the 08 at 09:00 until the 09 at 09:00 UTC


080800Z 0809/0909 VRB03KT 9999 FEW015 TX15/0813Z TN08/0906Z
PROB40
TEMPO 0812/0818 3000 RA SCT015TCU BKN020
PROB40
TEMPO 0818/0906 3000 BR BKN008



MET'MAP, your aeronautical weather chart ! - Copyright ORBIFLY December 2007 - Disclaimer

ORBIFLY MET'MAP TEAM :

Programming & Development : Alexandra Zaïnal
Original concept : Baudouin d'Aumeries
Technical & hardware support : Manuel Goepfert
Assistance : Marc-Olivier Méhu




SOURCES & CREDITS :

   NOAA